Time;durP1;ratioP1;P1;durP2;ratioP2;P2;SDS_P1;SDS_P2;PMS_P1;PMS_P2;Temp;Humidity;BMP_temperature;BMP_pressure;BME280_temperature;BME280_humidity;BME280_pressure;Samples;Min_cycle;Max_cycle;Signal;HPM_P1;HPM_P2
2023/01/27 00:00:52;;;;;;;13.10;6.00;;;;;;;0.83;100.00;100341.14;109537;1252;71428;-66
2023/01/27 00:03:40;;;;;;;11.20;5.30;;;;;;;0.84;100.00;100340.25;109554;1252;57324;-66
2023/01/27 00:06:28;;;;;;;11.40;5.10;;;;;;;0.88;100.00;100340.46;109611;1252;59008;-66
2023/01/27 00:09:16;;;;;;;11.00;5.10;;;;;;;0.92;100.00;100341.22;109576;1252;72659;-66
2023/01/27 00:15:14;;;;;;;9.80;4.40;;;;;;;0.97;100.00;100342.24;109594;1253;72450;-66
2023/01/27 00:18:02;;;;;;;9.00;3.80;;;;;;;0.99;100.00;100344.81;109537;1253;57206;-67
2023/01/27 00:27:07;;;;;;;7.50;2.80;;;;;;;1.04;100.00;100345.88;109568;1252;68856;-66
2023/01/27 00:29:58;;;;;;;7.90;2.80;;;;;;;1.04;100.00;100342.40;109565;1252;71412;-66
2023/01/27 00:36:05;;;;;;;7.10;2.80;;;;;;;1.13;100.00;100354.13;109513;1252;59255;-67
2023/01/27 00:38:53;;;;;;;7.70;2.70;;;;;;;1.17;100.00;100352.79;109580;1253;74051;-68
2023/01/27 00:41:41;;;;;;;6.80;2.60;;;;;;;1.20;100.00;100353.89;109619;1252;67972;-66
2023/01/27 00:44:29;;;;;;;7.10;2.80;;;;;;;1.25;100.00;100354.27;109563;1252;72729;-67
2023/01/27 00:47:17;;;;;;;8.20;3.00;;;;;;;1.28;100.00;100355.55;109594;1251;57237;-68
2023/01/27 00:50:07;;;;;;;7.20;2.20;;;;;;;1.28;100.00;100351.69;109469;1253;58723;-66
2023/01/27 00:53:01;;;;;;;7.20;2.50;;;;;;;1.28;100.00;100356.07;109556;1252;72851;-66
2023/01/27 00:55:50;;;;;;;7.20;2.60;;;;;;;1.27;100.00;100359.05;109593;1251;66715;-67
2023/01/27 00:58:38;;;;;;;6.90;2.70;;;;;;;1.26;100.00;100355.80;109569;1252;73746;-65
2023/01/27 01:01:27;;;;;;;7.80;2.70;;;;;;;1.28;100.00;100357.30;109536;1252;58398;-66
2023/01/27 01:04:18;;;;;;;7.30;2.80;;;;;;;1.30;100.00;100363.35;109598;1252;59047;-65
2023/01/27 01:07:06;;;;;;;6.30;2.40;;;;;;;1.33;100.00;100372.69;109594;1252;71693;-65
2023/01/27 01:09:55;;;;;;;7.20;2.20;;;;;;;1.34;100.00;100370.54;109584;1253;68843;-66
2023/01/27 01:12:43;;;;;;;6.30;2.30;;;;;;;1.37;100.00;100366.61;109559;1252;73303;-65
2023/01/27 01:15:35;;;;;;;7.10;2.50;;;;;;;1.41;100.00;100368.90;109580;1253;58757;-65
2023/01/27 01:18:24;;;;;;;7.00;2.20;;;;;;;1.45;100.00;100373.85;109409;1253;60276;-65
2023/01/27 01:21:15;;;;;;;6.60;2.30;;;;;;;1.47;100.00;100384.45;109493;1252;73185;-67
2023/01/27 01:24:04;;;;;;;7.30;2.00;;;;;;;1.49;100.00;100383.50;109596;1252;66075;-69
2023/01/27 01:26:56;;;;;;;8.10;2.40;;;;;;;1.48;100.00;100379.69;109532;1252;72390;-67
2023/01/27 01:29:47;;;;;;;7.00;1.90;;;;;;;1.54;100.00;100383.85;109570;1253;57416;-68
2023/01/27 01:32:35;;;;;;;6.90;2.10;;;;;;;1.57;100.00;100382.52;109623;1252;60441;-69
2023/01/27 01:35:24;;;;;;;6.10;2.00;;;;;;;1.59;100.00;100385.07;109576;1252;74106;-67
2023/01/27 01:38:12;;;;;;;7.40;1.90;;;;;;;1.64;100.00;100382.98;109518;1253;67681;-65
2023/01/27 01:41:05;;;;;;;5.60;1.70;;;;;;;1.66;100.00;100384.46;109565;1252;72855;-68
2023/01/27 01:43:53;;;;;;;4.90;1.50;;;;;;;1.69;100.00;100384.52;109507;1251;57380;-65
2023/01/27 01:46:41;;;;;;;5.50;1.70;;;;;;;1.74;100.00;100387.19;109614;1252;60256;-66
2023/01/27 01:49:38;;;;;;;8.60;1.90;;;;;;;1.79;100.00;100388.58;109578;1252;74106;-68
2023/01/27 01:52:26;;;;;;;6.00;1.70;;;;;;;1.84;100.00;100386.29;109579;1253;66386;-69
2023/01/27 01:55:14;;;;;;;6.10;1.80;;;;;;;1.89;100.00;100388.05;109559;1252;70686;-68
2023/01/27 01:58:05;;;;;;;7.60;1.60;;;;;;;1.92;100.00;100389.85;109544;1251;57239;-67
2023/01/27 02:00:55;;;;;;;7.60;1.80;;;;;;;1.94;100.00;100386.44;109598;1252;61753;-68
2023/01/27 02:03:48;;;;;;;4.20;1.30;;;;;;;1.93;100.00;100387.88;109584;1251;73435;-66
2023/01/27 02:06:49;;;;;;;5.00;1.20;;;;;;;1.94;100.00;100388.90;109543;1251;69083;-68
2023/01/27 02:09:38;;;;;;;7.90;1.40;;;;;;;1.95;100.00;100390.77;109604;1251;72449;-67
2023/01/27 02:12:27;;;;;;;4.70;1.40;;;;;;;1.96;100.00;100393.90;109448;1251;58786;-69
2023/01/27 02:15:16;;;;;;;4.60;1.10;;;;;;;1.96;100.00;100397.73;109588;1251;60263;-68
2023/01/27 02:18:06;;;;;;;4.90;1.20;;;;;;;1.96;100.00;100398.95;109549;1252;73008;-68
2023/01/27 02:20:54;;;;;;;5.30;1.30;;;;;;;1.97;100.00;100401.21;109489;1252;68008;-69
2023/01/27 02:23:56;;;;;;;5.30;1.60;;;;;;;1.99;100.00;100404.46;109524;1252;72859;-70
2023/01/27 02:26:45;;;;;;;4.80;1.20;;;;;;;2.01;100.00;100412.45;109567;1251;57297;-71
2023/01/27 02:29:33;;;;;;;4.50;1.20;;;;;;;1.95;100.00;100410.02;109606;1253;58253;-68
2023/01/27 02:32:24;;;;;;;4.10;1.10;;;;;;;1.97;100.00;100414.66;109609;1252;71854;-67
2023/01/27 02:35:22;;;;;;;5.20;1.50;;;;;;;1.96;100.00;100418.77;109492;1252;66663;-68
2023/01/27 02:38:13;;;;;;;5.50;1.60;;;;;;;1.94;100.00;100419.70;109528;1252;72642;-67
2023/01/27 02:41:30;;;;;;;8.60;1.70;;;;;;;1.90;100.00;100414.76;109363;1253;59518;-68
2023/01/27 02:44:20;;;;;;;6.90;1.50;;;;;;;1.91;100.00;100426.10;109544;1251;59368;-68
2023/01/27 02:47:08;;;;;;;5.80;1.50;;;;;;;1.90;100.00;100438.20;109591;1252;73002;-68
2023/01/27 02:49:56;;;;;;;5.90;1.40;;;;;;;1.90;100.00;100436.98;109586;1253;69046;-66
2023/01/27 02:52:44;;;;;;;6.30;1.40;;;;;;;1.87;100.00;100432.73;108076;1252;1002985;-66
2023/01/27 02:55:32;;;;;;;5.00;1.20;;;;;;;1.86;100.00;100436.96;109601;1251;58675;-67
2023/01/27 02:58:21;;;;;;;5.40;1.30;;;;;;;1.84;100.00;100443.13;107613;1251;59319;-67
2023/01/27 03:01:17;;;;;;;5.50;1.50;;;;;;;1.83;100.00;100446.48;109585;1251;71255;-67
2023/01/27 03:04:06;;;;;;;6.20;1.60;;;;;;;1.82;100.00;100447.60;109587;1252;67637;-68
2023/01/27 03:06:54;;;;;;;5.40;1.70;;;;;;;1.85;100.00;100450.45;109442;1252;71855;-67
2023/01/27 03:09:44;;;;;;;4.80;1.60;;;;;;;1.84;100.00;100453.27;109573;1252;59965;-68
2023/01/27 03:12:31;;;;;;;6.50;1.60;;;;;;;1.83;100.00;100454.55;109592;1252;60247;-69
2023/01/27 03:18:26;;;;;;;5.30;1.60;;;;;;;1.79;100.00;100455.40;109565;1253;66514;-67
2023/01/27 03:21:17;;;;;;;5.90;1.60;;;;;;;1.77;100.00;100459.15;109558;1252;73012;-71
2023/01/27 03:24:05;;;;;;;6.10;1.90;;;;;;;1.74;100.00;100457.67;109448;1253;58517;-68
2023/01/27 03:26:54;;;;;;;6.70;1.60;;;;;;;1.74;100.00;100464.33;109576;1252;60505;-68
2023/01/27 03:29:55;;;;;;;5.90;1.50;;;;;;;1.69;100.00;100467.79;109613;1252;73101;-66
2023/01/27 03:32:46;;;;;;;7.10;1.60;;;;;;;1.66;100.00;100470.37;109611;1252;67639;-66
2023/01/27 03:48:32;;;;;;;5.70;1.50;;;;;;;1.51;100.00;100485.57;109623;1252;66574;-66
2023/01/27 03:51:23;;;;;;;6.40;1.70;;;;;;;1.49;100.00;100487.73;109606;1252;73646;-66
2023/01/27 03:54:11;;;;;;;5.80;1.60;;;;;;;1.47;100.00;100486.56;109476;1252;57331;-67
2023/01/27 03:57:04;;;;;;;5.90;1.80;;;;;;;1.46;100.00;100490.44;109651;1252;60091;-66
2023/01/27 03:59:53;;;;;;;7.00;1.70;;;;;;;1.45;100.00;100489.77;109575;1252;73142;-66
2023/01/27 04:08:55;;;;;;;6.80;1.90;;;;;;;1.49;100.00;100495.44;109553;1252;59977;-66
2023/01/27 04:11:54;;;;;;;6.20;1.60;;;;;;;1.48;100.00;100502.45;109587;1252;59128;-66
2023/01/27 04:14:43;;;;;;;7.50;1.70;;;;;;;1.46;100.00;100503.02;109600;1252;70674;-67
2023/01/27 04:17:37;;;;;;;6.60;1.90;;;;;;;1.46;100.00;100509.16;109590;1251;68686;-65
2023/01/27 04:20:26;;;;;;;7.20;1.70;;;;;;;1.47;100.00;100510.88;109564;1252;72603;-66
2023/01/27 04:23:13;;;;;;;5.90;1.80;;;;;;;1.48;100.00;100516.80;109557;1252;58382;-66
2023/01/27 04:26:02;;;;;;;6.70;1.80;;;;;;;1.49;100.00;100515.36;109611;1252;60081;-68
2023/01/27 04:28:52;;;;;;;5.50;1.50;;;;;;;1.50;100.00;100518.65;109593;1252;72096;-66
2023/01/27 04:31:43;;;;;;;6.10;1.60;;;;;;;1.53;100.00;100522.21;109575;1251;66585;-67
2023/01/27 04:34:34;;;;;;;5.60;1.40;;;;;;;1.52;100.00;100520.15;109596;1252;72562;-66
2023/01/27 04:37:22;;;;;;;5.80;1.70;;;;;;;1.47;100.00;100516.47;109612;1252;58790;-66
2023/01/27 04:40:13;;;;;;;7.10;2.10;;;;;;;1.49;100.00;100528.99;109575;1251;60460;-69
2023/01/27 04:43:01;;;;;;;8.90;1.70;;;;;;;1.50;100.00;100528.61;109626;1252;74006;-66
2023/01/27 04:45:51;;;;;;;5.40;1.30;;;;;;;1.49;100.00;100525.13;109574;1251;66348;-67
2023/01/27 04:48:39;;;;;;;7.60;1.90;;;;;;;1.49;100.00;100534.06;109562;1252;72769;-68
2023/01/27 04:51:27;;;;;;;6.90;1.70;;;;;;;1.49;100.00;100533.71;109565;1252;58476;-67
2023/01/27 04:54:16;;;;;;;6.30;1.30;;;;;;;1.49;100.00;100539.66;109594;1251;60295;-67
2023/01/27 04:57:04;;;;;;;5.70;1.60;;;;;;;1.47;100.00;100544.11;109633;1252;73881;-68
2023/01/27 04:59:51;;;;;;;7.70;1.80;;;;;;;1.46;100.00;100546.95;109611;1251;68098;-67
2023/01/27 05:02:39;;;;;;;6.40;1.60;;;;;;;1.46;100.00;100549.75;109569;1252;73730;-66
2023/01/27 05:05:28;;;;;;;6.80;1.60;;;;;;;1.43;100.00;100555.08;109587;1252;59530;-67
2023/01/27 05:08:16;;;;;;;7.50;1.40;;;;;;;1.42;100.00;100558.09;109485;1252;60084;-69
2023/01/27 05:11:04;;;;;;;8.00;1.80;;;;;;;1.41;100.00;100560.21;109534;1251;73228;-68
2023/01/27 05:13:52;;;;;;;5.40;1.50;;;;;;;1.42;100.00;100562.30;109492;1253;66488;-68
2023/01/27 05:16:40;;;;;;;6.60;1.60;;;;;;;1.44;100.00;100562.57;109497;1252;71408;-71
2023/01/27 05:19:28;;;;;;;6.60;1.40;;;;;;;1.43;100.00;100570.98;109493;1252;57333;-72
2023/01/27 05:22:16;;;;;;;6.60;1.60;;;;;;;1.41;100.00;100568.96;109521;1252;61568;-69
2023/01/27 05:25:08;;;;;;;5.40;1.30;;;;;;;1.43;100.00;100574.31;109558;1253;73917;-67
2023/01/27 05:27:55;;;;;;;6.80;1.60;;;;;;;1.43;100.00;100580.44;109529;1252;67909;-68
2023/01/27 05:30:43;;;;;;;6.60;1.40;;;;;;;1.42;100.00;100580.82;109580;1252;70661;-70
2023/01/27 05:33:31;;;;;;;7.10;1.30;;;;;;;1.39;100.00;100585.30;109559;1252;59017;-68
2023/01/27 05:36:25;;;;;;;6.80;1.50;;;;;;;1.40;100.00;100587.89;109567;1253;60198;-67
2023/01/27 05:39:13;;;;;;;5.90;1.10;;;;;;;1.41;100.00;100591.87;109586;1253;71771;-69
2023/01/27 05:42:01;;;;;;;8.20;1.40;;;;;;;1.41;100.00;100597.13;109571;1252;68042;-68
2023/01/27 05:44:48;;;;;;;7.70;1.40;;;;;;;1.41;100.00;100598.33;109533;1252;72388;-70
2023/01/27 05:47:37;;;;;;;8.00;1.60;;;;;;;1.40;100.00;100598.38;109588;1252;58479;-70
2023/01/27 05:50:25;;;;;;;7.50;1.20;;;;;;;1.40;100.00;100603.27;109564;1252;60287;-66
2023/01/27 05:53:12;;;;;;;6.40;1.50;;;;;;;1.39;100.00;100609.05;109612;1251;74647;-67
2023/01/27 05:56:02;;;;;;;7.70;1.30;;;;;;;1.37;100.00;100608.27;109516;1252;68721;-66
2023/01/27 05:58:52;;;;;;;7.00;1.40;;;;;;;1.37;100.00;100614.38;109503;1252;73652;-69
2023/01/27 06:01:40;;;;;;;6.90;1.60;;;;;;;1.38;100.00;100618.52;109544;1253;58964;-68
2023/01/27 06:04:30;;;;;;;8.70;1.70;;;;;;;1.40;100.00;100623.36;109497;1252;60266;-69
2023/01/27 06:07:18;;;;;;;7.10;1.50;;;;;;;1.35;100.00;100627.71;109512;1254;72823;-68
2023/01/27 06:10:07;;;;;;;7.10;1.50;;;;;;;1.33;100.00;100636.15;109569;1253;67845;-68
2023/01/27 06:12:55;;;;;;;6.00;1.40;;;;;;;1.33;100.00;100638.97;109532;1252;73651;-69
2023/01/27 06:15:48;;;;;;;6.60;1.20;;;;;;;1.32;100.00;100640.75;109519;1255;58953;-71
2023/01/27 06:18:40;;;;;;;6.90;1.40;;;;;;;1.29;100.00;100643.99;109606;1251;57783;-72
2023/01/27 06:21:28;;;;;;;8.00;1.40;;;;;;;1.26;100.00;100649.48;109500;1251;72039;-72
2023/01/27 06:24:16;;;;;;;4.90;1.00;;;;;;;1.21;99.99;100647.70;109548;1252;67936;-71
2023/01/27 06:27:04;;;;;;;6.00;1.30;;;;;;;1.20;99.88;100650.02;109519;1251;73447;-69
2023/01/27 06:29:52;;;;;;;8.40;1.50;;;;;;;1.16;99.13;100663.23;109503;1251;57647;-66
2023/01/27 06:32:40;;;;;;;7.30;1.30;;;;;;;1.15;99.26;100668.51;109518;1252;60015;-68
2023/01/27 06:35:30;;;;;;;5.80;1.20;;;;;;;1.14;98.95;100666.79;109552;1253;73759;-68
2023/01/27 06:38:21;;;;;;;6.20;1.20;;;;;;;1.13;98.47;100675.04;109403;1252;67961;-71
2023/01/27 06:41:10;;;;;;;8.00;1.50;;;;;;;1.11;97.92;100674.04;109597;1252;71126;-72
2023/01/27 06:43:58;;;;;;;5.00;1.10;;;;;;;1.07;97.67;100676.09;109570;1252;58706;-68
2023/01/27 06:46:48;;;;;;;5.60;1.10;;;;;;;1.07;97.19;100681.86;109526;1253;60371;-68
2023/01/27 06:49:36;;;;;;;5.50;1.10;;;;;;;1.07;97.44;100686.23;109560;1252;73817;-70
2023/01/27 06:52:24;;;;;;;8.60;1.50;;;;;;;1.05;97.56;100695.02;109604;1252;66423;-70
2023/01/27 06:55:15;;;;;;;4.80;1.20;;;;;;;1.05;97.48;100697.13;109545;1252;72419;-69
2023/01/27 06:58:03;;;;;;;8.50;2.20;;;;;;;1.04;96.68;100703.98;109427;1251;57294;-70
2023/01/27 07:00:51;;;;;;;7.70;1.50;;;;;;;1.06;96.50;100702.68;109526;1251;61156;-68
2023/01/27 07:03:40;;;;;;;8.50;2.10;;;;;;;1.07;95.84;100704.94;109578;1251;73070;-70
2023/01/27 07:06:33;;;;;;;9.20;1.80;;;;;;;1.05;95.36;100709.35;109572;1252;68617;-69
2023/01/27 07:09:24;;;;;;;9.60;1.20;;;;;;;1.06;95.56;100710.91;108053;1252;1002884;-70
2023/01/27 07:12:12;;;;;;;6.90;2.20;;;;;;;1.07;95.68;100714.38;109526;1252;58769;-69
2023/01/27 07:15:00;;;;;;;6.80;1.20;;;;;;;1.07;95.24;100716.13;109610;1252;61537;-69
2023/01/27 07:17:48;;;;;;;6.90;1.20;;;;;;;1.04;94.32;100716.22;109555;1252;73151;-69
2023/01/27 07:20:36;;;;;;;5.50;1.40;;;;;;;1.01;94.43;100714.36;109551;1251;68098;-69
2023/01/27 07:23:24;;;;;;;7.00;1.30;;;;;;;0.99;94.45;100723.33;108379;1252;1002772;-67
2023/01/27 07:26:12;;;;;;;5.00;1.30;;;;;;;0.96;93.97;100727.25;108825;1251;1002386;-69
2023/01/27 07:29:12;;;;;;;7.20;1.50;;;;;;;0.92;93.17;100732.77;109489;1253;59959;-68
2023/01/27 07:32:02;;;;;;;5.80;1.10;;;;;;;0.92;93.70;100738.38;108822;1251;1002949;-69
2023/01/27 07:34:52;;;;;;;5.80;1.40;;;;;;;0.89;93.35;100743.52;109572;1251;67366;-69
2023/01/27 07:37:40;;;;;;;9.30;2.10;;;;;;;0.87;93.51;100750.02;109586;1251;71779;-69
2023/01/27 07:40:28;;;;;;;10.20;2.10;;;;;;;0.86;93.62;100746.73;109472;1252;57458;-68
2023/01/27 07:43:17;;;;;;;7.70;1.30;;;;;;;0.87;93.96;100741.80;109573;1252;61068;-72
2023/01/27 07:46:06;;;;;;;5.40;1.20;;;;;;;0.88;93.92;100749.65;108757;1252;1002828;-67
2023/01/27 07:48:55;;;;;;;5.90;1.30;;;;;;;0.95;94.24;100744.05;109554;1252;67089;-67
2023/01/27 07:51:42;;;;;;;6.40;1.30;;;;;;;1.01;93.77;100751.95;109601;1252;72942;-69
2023/01/27 07:54:31;;;;;;;7.50;1.10;;;;;;;1.10;94.45;100759.55;109434;1252;59462;-70
2023/01/27 07:57:20;;;;;;;5.50;1.10;;;;;;;1.20;93.42;100755.42;109572;1253;58855;-68
2023/01/27 08:00:14;;;;;;;5.00;1.10;;;;;;;1.24;92.15;100759.01;109526;1253;72784;-70
2023/01/27 08:03:05;;;;;;;6.60;1.50;;;;;;;1.23;92.28;100759.54;109500;1253;65502;-68
2023/01/27 08:05:53;;;;;;;6.00;1.50;;;;;;;1.26;92.44;100767.33;109551;1252;72413;-68
2023/01/27 08:08:42;;;;;;;7.40;1.30;;;;;;;1.20;92.04;100760.51;109484;1251;58596;-68
2023/01/27 08:11:31;;;;;;;7.10;1.40;;;;;;;1.18;91.56;100765.27;109515;1252;60199;-68
2023/01/27 08:14:23;;;;;;;5.80;1.30;;;;;;;1.15;91.64;100774.61;109563;1253;71462;-68
2023/01/27 08:17:20;;;;;;;6.40;1.10;;;;;;;1.13;92.01;100783.07;109536;1253;66251;-68
2023/01/27 08:20:10;;;;;;;7.10;1.50;;;;;;;1.09;91.18;100778.11;109516;1252;71189;-70
2023/01/27 08:22:58;;;;;;;4.90;1.10;;;;;;;1.11;91.14;100786.45;109323;1254;57479;-67
2023/01/27 08:25:51;;;;;;;4.70;0.90;;;;;;;1.14;91.60;100790.02;109249;1254;60271;-68
2023/01/27 08:28:40;;;;;;;6.70;1.20;;;;;;;1.18;91.52;100790.97;109259;1254;71669;-68
2023/01/27 08:31:31;;;;;;;5.10;1.10;;;;;;;1.20;90.64;100792.48;109325;1254;66725;-68
2023/01/27 08:34:22;;;;;;;7.10;1.10;;;;;;;1.29;89.77;100805.90;109339;1255;72418;-67
2023/01/27 08:37:10;;;;;;;7.30;1.40;;;;;;;1.37;89.76;100799.55;109342;1254;58674;-69
2023/01/27 08:39:58;;;;;;;5.50;1.10;;;;;;;1.45;89.19;100799.88;109232;1254;60619;-67
2023/01/27 08:42:49;;;;;;;6.10;1.10;;;;;;;1.53;89.26;100802.93;109196;1254;71981;-68
2023/01/27 08:45:37;;;;;;;4.70;1.00;;;;;;;1.54;88.51;100814.81;109218;1254;67699;-70
2023/01/27 08:48:28;;;;;;;6.70;1.30;;;;;;;1.53;87.46;100804.88;109333;1255;73905;-72
2023/01/27 08:51:16;;;;;;;5.40;1.30;;;;;;;1.58;86.62;100809.10;109255;1254;58492;-70
2023/01/27 08:54:05;;;;;;;7.50;1.30;;;;;;;1.62;85.45;100810.73;109310;1254;60146;-68
2023/01/27 08:56:53;;;;;;;6.30;1.10;;;;;;;1.64;85.13;100808.23;109402;1254;72903;-69
2023/01/27 08:59:45;;;;;;;5.60;1.10;;;;;;;1.64;84.89;100809.98;109434;1251;68154;-70
2023/01/27 09:02:33;;;;;;;5.20;1.00;;;;;;;1.79;84.89;100810.23;109550;1253;72664;-70
2023/01/27 09:05:26;;;;;;;5.50;1.20;;;;;;;1.86;84.53;100806.19;109556;1253;57643;-71
2023/01/27 09:08:14;;;;;;;6.40;1.40;;;;;;;1.97;84.88;100815.32;109541;1252;59153;-70
2023/01/27 09:11:16;;;;;;;6.20;1.20;;;;;;;2.07;83.17;100814.33;109598;1252;72876;-70
2023/01/27 09:14:04;;;;;;;4.30;1.10;;;;;;;2.19;83.02;100820.59;109559;1251;66449;-70
2023/01/27 09:16:52;;;;;;;6.50;1.40;;;;;;;2.51;82.66;100823.81;109527;1252;73717;-67
2023/01/27 09:19:40;;;;;;;6.60;1.20;;;;;;;3.34;82.26;100819.77;109504;1251;59981;-70
2023/01/27 09:22:28;;;;;;;7.70;1.40;;;;;;;3.72;78.18;100812.10;107258;1252;1002341;-68
2023/01/27 09:25:19;;;;;;;6.10;1.20;;;;;;;4.18;77.60;100822.27;109549;1252;72789;-67
2023/01/27 09:28:17;;;;;;;7.00;1.50;;;;;;;5.75;73.64;100811.27;109560;1252;67899;-69
2023/01/27 09:31:08;;;;;;;7.00;1.70;;;;;;;6.51;66.67;100802.45;109577;1255;73103;-69
2023/01/27 09:33:57;;;;;;;8.00;1.50;;;;;;;6.16;65.02;100806.10;109453;1252;57329;-68
2023/01/27 09:36:56;;;;;;;8.30;1.40;;;;;;;5.95;66.00;100808.10;109562;1251;58883;-69
2023/01/27 09:39:58;;;;;;;5.60;1.40;;;;;;;5.48;65.87;100806.17;109524;1251;71723;-69
2023/01/27 09:43:10;;;;;;;6.70;1.30;;;;;;;4.93;65.70;100817.33;109547;1253;68068;-68
2023/01/27 09:46:25;;;;;;;5.50;1.20;;;;;;;4.51;67.33;100824.88;109572;1252;72301;-68
2023/01/27 09:49:50;;;;;;;7.00;1.40;;;;;;;4.26;69.40;100822.84;109524;1253;57368;-68
2023/01/27 09:53:03;;;;;;;5.10;1.20;;;;;;;4.54;71.40;100819.63;109512;1255;60095;-68
2023/01/27 09:56:36;;;;;;;6.20;1.20;;;;;;;4.91;68.00;100819.20;109547;1251;74477;-70
2023/01/27 09:59:47;;;;;;;5.60;1.30;;;;;;;4.58;67.79;100823.37;109461;1252;66679;-70
2023/01/27 10:03:42;;;;;;;6.20;1.10;;;;;;;4.27;68.46;100828.27;109449;1255;72290;-69
2023/01/27 10:06:48;;;;;;;5.80;1.00;;;;;;;4.03;70.23;100830.27;109400;1253;57285;-69
2023/01/27 10:10:19;;;;;;;8.70;1.20;;;;;;;3.83;69.79;100821.36;109605;1253;58771;-68
2023/01/27 10:13:42;;;;;;;7.80;1.40;;;;;;;3.74;70.48;100827.99;109572;1252;73104;-68
2023/01/27 10:16:38;;;;;;;5.80;1.10;;;;;;;3.63;70.88;100834.20;109493;1253;67151;-70
2023/01/27 10:20:02;;;;;;;6.90;1.20;;;;;;;5.11;68.69;100830.80;109534;1253;71479;-69
2023/01/27 10:23:31;;;;;;;6.80;1.80;;;;;;;5.28;66.64;100827.98;109554;1253;57477;-67
2023/01/27 10:26:45;;;;;;;8.00;1.50;;;;;;;4.93;65.22;100828.77;109602;1252;60386;-67
2023/01/27 10:29:45;;;;;;;5.50;1.20;;;;;;;4.66;65.86;100824.98;109488;1253;71497;-69
2023/01/27 10:32:55;;;;;;;7.80;1.40;;;;;;;5.57;66.41;100824.23;109522;1253;67830;-70
2023/01/27 10:36:01;;;;;;;6.90;1.40;;;;;;;8.45;61.17;100822.14;109505;1252;71960;-68
2023/01/27 10:39:13;;;;;;;6.90;1.50;;;;;;;10.02;54.28;100808.33;109518;1253;57346;-69
2023/01/27 10:42:11;;;;;;;7.40;1.20;;;;;;;10.70;50.71;100803.23;109577;1252;60057;-68
2023/01/27 10:45:29;;;;;;;6.20;1.40;;;;;;;10.02;50.73;100808.70;109543;1253;71977;-68
2023/01/27 10:48:37;;;;;;;6.50;1.10;;;;;;;10.83;47.63;100808.64;109577;1253;67929;-67
2023/01/27 10:51:39;;;;;;;5.10;1.10;;;;;;;10.14;46.99;100809.68;109561;1252;72737;-68
2023/01/27 10:54:38;;;;;;;4.70;1.10;;;;;;;8.99;48.48;100814.77;109525;1253;58329;-69
2023/01/27 10:57:40;;;;;;;6.20;1.30;;;;;;;8.37;50.34;100815.15;109503;1252;60015;-68
2023/01/27 11:00:50;;;;;;;6.90;1.10;;;;;;;8.84;48.82;100812.31;109533;1255;71042;-67
2023/01/27 11:04:35;;;;;;;5.90;1.20;;;;;;;8.61;49.33;100818.23;109546;1252;67958;-70
2023/01/27 11:07:26;;;;;;;6.20;1.10;;;;;;;9.28;49.78;100816.39;109531;1253;71281;-68
2023/01/27 11:10:19;;;;;;;5.10;1.10;;;;;;;10.67;46.64;100814.69;109545;1253;57360;-69
2023/01/27 11:13:13;;;;;;;5.10;1.10;;;;;;;10.03;47.63;100815.72;109509;1253;60364;-68
2023/01/27 11:16:05;;;;;;;5.30;1.20;;;;;;;9.27;47.75;100822.88;109574;1252;71743;-68
2023/01/27 11:18:59;;;;;;;6.80;1.20;;;;;;;8.72;48.24;100827.17;109519;1253;66721;-69
2023/01/27 11:21:52;;;;;;;8.10;1.30;;;;;;;7.55;50.13;100830.73;109531;1252;70846;-69
2023/01/27 11:25:43;;;;;;;5.50;1.40;;;;;;;6.56;53.22;100835.91;109495;1253;57635;-68
2023/01/27 11:29:06;;;;;;;6.40;1.60;;;;;;;5.80;56.09;100832.17;109510;1253;60891;-69
2023/01/27 11:32:30;;;;;;;8.00;2.30;;;;;;;5.47;57.82;100831.21;109519;1254;71543;-69
2023/01/27 11:35:18;;;;;;;8.00;2.10;;;;;;;6.08;59.37;100834.59;109568;1252;68687;-68
2023/01/27 11:38:20;;;;;;;10.40;2.70;;;;;;;6.77;56.40;100828.33;109564;1252;72425;-70
2023/01/27 11:41:09;;;;;;;8.80;2.30;;;;;;;6.49;56.27;100833.39;109547;1256;57477;-70
2023/01/27 11:44:05;;;;;;;8.20;2.30;;;;;;;6.05;56.93;100834.77;109539;1253;60071;-71
2023/01/27 11:46:57;;;;;;;7.10;1.60;;;;;;;5.57;58.40;100831.65;109426;1252;71935;-70
2023/01/27 11:49:48;;;;;;;8.90;2.90;;;;;;;5.22;58.96;100830.69;109552;1253;68575;-69
2023/01/27 11:52:36;;;;;;;7.00;1.60;;;;;;;4.94;59.69;100836.27;109563;1253;72786;-68
2023/01/27 11:55:32;;;;;;;5.90;1.50;;;;;;;4.61;60.20;100831.66;109542;1253;57634;-69
2023/01/27 11:58:56;;;;;;;5.40;1.40;;;;;;;5.06;60.25;100835.40;109545;1253;59981;-66
2023/01/27 12:02:26;;;;;;;6.70;1.40;;;;;;;5.92;56.89;100822.87;109493;1252;71877;-68
2023/01/27 12:05:27;;;;;;;7.30;1.40;;;;;;;5.30;56.47;100823.67;109591;1253;66300;-67
2023/01/27 12:08:45;;;;;;;5.80;1.20;;;;;;;4.73;57.10;100829.60;109509;1254;73693;-67
2023/01/27 12:11:36;;;;;;;5.30;1.20;;;;;;;4.42;58.00;100837.18;109532;1253;57372;-67
2023/01/27 12:14:24;;;;;;;14.90;6.10;;;;;;;4.13;59.13;100834.24;109552;1253;58949;-67
2023/01/27 12:17:24;;;;;;;8.10;2.30;;;;;;;3.93;60.33;100835.36;109506;1252;72132;-69
2023/01/27 12:20:30;;;;;;;5.50;1.60;;;;;;;3.77;61.62;100832.09;109573;1253;66598;-68
2023/01/27 12:23:52;;;;;;;5.20;1.30;;;;;;;4.20;61.74;100830.48;109560;1254;73793;-69
2023/01/27 12:26:43;;;;;;;6.40;1.20;;;;;;;4.56;60.23;100825.19;108783;1254;1002336;-73
2023/01/27 12:29:43;;;;;;;4.80;1.20;;;;;;;4.32;60.31;100824.39;109439;1254;61770;-70
2023/01/27 12:32:46;;;;;;;5.60;1.20;;;;;;;4.07;61.87;100826.59;109475;1253;74091;-68
2023/01/27 12:35:35;;;;;;;6.40;1.30;;;;;;;3.75;62.49;100830.59;109551;1253;67581;-69
2023/01/27 12:38:26;;;;;;;7.30;1.40;;;;;;;3.52;63.80;100829.48;109532;1253;73510;-69
2023/01/27 12:41:22;;;;;;;8.90;1.60;;;;;;;3.29;63.89;100824.69;109562;1254;57314;-69
2023/01/27 12:44:21;;;;;;;8.50;1.50;;;;;;;3.24;64.85;100825.23;109631;1252;60516;-70
2023/01/27 12:47:26;;;;;;;6.40;1.20;;;;;;;3.46;64.62;100836.19;108789;1254;1002277;-70
2023/01/27 12:50:25;;;;;;;4.90;1.10;;;;;;;3.34;65.25;100837.70;109535;1252;66290;-71
2023/01/27 12:53:18;;;;;;;5.30;1.30;;;;;;;3.26;65.98;100834.27;109516;1254;71558;-69
2023/01/27 12:56:17;;;;;;;6.80;1.40;;;;;;;3.10;65.64;100829.05;109470;1252;57414;-71
2023/01/27 12:59:13;;;;;;;5.70;1.10;;;;;;;2.93;66.13;100832.42;109577;1253;61189;-69
2023/01/27 13:02:22;;;;;;;6.00;1.10;;;;;;;2.78;65.18;100832.05;109515;1253;72893;-70
2023/01/27 13:05:16;;;;;;;6.60;1.10;;;;;;;2.89;63.59;100837.84;109577;1253;67927;-69
2023/01/27 13:08:05;;;;;;;6.20;1.40;;;;;;;3.00;62.94;100833.08;108660;1253;1002341;-70
2023/01/27 13:10:59;;;;;;;5.90;1.40;;;;;;;3.16;62.68;100830.07;109556;1252;57918;-70
2023/01/27 13:13:50;;;;;;;16.00;5.40;;;;;;;3.32;61.77;100828.09;109588;1254;58708;-70
2023/01/27 13:16:38;;;;;;;13.90;5.20;;;;;;;3.21;61.84;100823.39;108773;1251;1002300;-72
2023/01/27 13:19:42;;;;;;;7.10;2.00;;;;;;;3.48;61.15;100831.23;109516;1254;67686;-69
2023/01/27 13:22:40;;;;;;;6.20;1.30;;;;;;;3.52;61.00;100828.59;109512;1252;72503;-69
2023/01/27 13:25:57;;;;;;;4.90;1.30;;;;;;;3.40;61.46;100829.77;109374;1254;57455;-70
2023/01/27 13:29:19;;;;;;;9.10;1.70;;;;;;;3.18;62.19;100832.99;109449;1254;60062;-68
2023/01/27 13:32:30;;;;;;;6.90;1.30;;;;;;;3.02;63.28;100835.96;109490;1252;71471;-69
2023/01/27 13:35:35;;;;;;;8.60;1.70;;;;;;;2.78;63.68;100832.06;109385;1251;66990;-71
2023/01/27 13:38:56;;;;;;;5.20;1.30;;;;;;;2.56;64.89;100833.47;109480;1252;72390;-68
2023/01/27 13:42:04;;;;;;;8.00;1.30;;;;;;;2.34;64.94;100836.42;109510;1254;57306;-69
2023/01/27 13:45:05;;;;;;;6.00;1.30;;;;;;;2.24;66.06;100842.34;109545;1253;60136;-68
2023/01/27 13:47:59;;;;;;;6.50;1.30;;;;;;;2.13;66.47;100846.37;109582;1254;72770;-67
2023/01/27 13:50:57;;;;;;;6.80;1.30;;;;;;;2.00;67.18;100842.17;109538;1253;65779;-68
2023/01/27 13:53:47;;;;;;;5.90;1.60;;;;;;;1.87;68.17;100842.40;109516;1254;72820;-68
2023/01/27 13:57:31;;;;;;;8.10;1.70;;;;;;;1.76;68.32;100840.60;108689;1253;1002437;-69
2023/01/27 14:00:45;;;;;;;6.10;1.40;;;;;;;1.62;68.76;100833.66;109502;1252;61279;-71